HETR

El Tor Airport

Egypt
TAF HETR 231100Z 2312/2418 30010G22KT CAVOK
Issued Valid From Valid To
Jul-23 @ 11:00 UTC
(3 hours ago)
Jul-23 @ 12:00 UTC
(2 hours ago)
Jul-24 @ 18:00 UTC
(-1 days ago)
Jul-23 @ 12:00 to Jul-24 @ 18:00
TAF HETR 231100Z 2312/2418 30010G22KT CAVOK
Wind Visibility Clouds Conditions
300° at 10 knots
 Gusting to 22 knots
10,000+ meters
  • No significant clouds
TAF HETR 231100Z 2312/2418 30010G22KT CAVOK
Issued Jul-23 @ 11:00 UTC
(3 hours ago)
Valid From Jul-23 @ 12:00 UTC
(2 hours ago)
Valid To Jul-24 @ 18:00 UTC
(-1 days ago)
Jul-23 @ 12:00 - Jul-24 @ 18:00
Wind Visibility
300° at 10 knots
 Gusting to 22 knots
10,000+ meters
Clouds
  • No significant clouds
Conditions